Asahimaru No18 — JI3661 — position and weather

sailwx.info

Track history (hours):
 
Tides and Currents Weather Stations Pressure Air Temp Water Temp Dewpoint Dewpoint Depression Visibility Wind Speed Wind Dir Waves Ship Positions

Asahimaru No18

Last reported at 2017-Dec-15 17:50 UTC. Time now 2017-Dec-17 17:24 UTC.
Position N 33°20' E 131°47'.

Length 62 m.

Type: Cargo ship. MMSI: 431301419.

Date/timePositionNaut miles runAvg speedWind from/ knotsBaromVisibWave heightAir tempDewpointWater temp
2017-Dec-15 17:50N 33°20' E 131°47'25 1.8
2017-Dec-15 03:40N 33°43' E 131°35'1411.8
2017-Dec-15 02:30N 33°49' E 131°20'1711.5
2017-Dec-15 01:00N 33°57' E 131°02'4 8.7
2017-Dec-15 00:30N 33°57' E 130°57'40 1.0
2017-Dec-13 07:14N 33°40' E 130°13'310.1
2017-Dec-13 06:58N 33°39' E 130°17'510.3
2017-Dec-13 06:30N 33°37' E 130°22'2 0.2
2017-Dec-12 17:48N 33°37' E 130°24'1 2.6
2017-Dec-12 17:30N 33°37' E 130°23'611.1
2017-Dec-12 17:00N 33°39' E 130°17'7 9.6
2017-Dec-12 16:18N 33°46' E 130°19'411.0
2017-Dec-12 15:58N 33°49' E 130°22'510.9
2017-Dec-12 15:30N 33°52' E 130°26'510.4
2017-Dec-12 14:59N 33°57' E 130°31'510.4
2017-Dec-12 14:30N 33°58' E 130°36'510.4
2017-Dec-12 14:00N 33°58' E 130°43'510.2
2017-Dec-12 13:30N 33°58' E 130°49'5 9.0
2017-Dec-12 12:59N 33°55' E 130°53'3 6.3
2017-Dec-12 12:30N 33°57' E 130°57'4 9.0
2017-Dec-12 12:00N 33°58' E 131°02'510.6
2017-Dec-12 11:30N 33°55' E 131°07'510.4
2017-Dec-12 11:00N 33°52' E 131°12'510.8
2017-Dec-12 10:30N 33°51' E 131°18'510.7
2017-Dec-12 10:00N 33°50' E 131°25'510.4
2017-Dec-12 09:29N 33°49' E 131°31'161 9.8
2017-Dec-11 16:57N 34°31' E 134°39'5 9.9
2017-Dec-11 16:25N 34°33' E 134°45'4 9.9
2017-Dec-11 15:59N 34°34' E 134°50'5 9.9
2017-Dec-11 15:30N 34°36' E 134°56'5 9.2
2017-Dec-11 15:00N 34°38' E 135°01'4 8.2
2017-Dec-11 14:29N 34°36' E 135°06'5 9.8
2017-Dec-11 14:00N 34°35' E 135°11'510.1
2017-Dec-11 13:30N 34°34' E 135°17'5 9.9
2017-Dec-11 13:00N 34°34' E 135°23'3 0.1
2017-Dec-10 01:08N 34°34' E 135°26'0 0.1
2017-Dec-10 00:53N 34°33' E 135°26'4 9.1
2017-Dec-10 00:30N 34°34' E 135°22'510.0
2017-Dec-09 23:59N 34°34' E 135°16'611.6
2017-Dec-09 23:30N 34°34' E 135°09'612.0
2017-Dec-09 23:00N 34°36' E 135°02'713.0
2017-Dec-09 22:27N 34°35' E 134°54'613.2
2017-Dec-09 22:00N 34°33' E 134°47'712.1
2017-Dec-09 21:25N 34°30' E 134°39'10011.2
2017-Dec-09 12:28N 34°03' E 132°42'48 2.0
2017-Dec-08 12:00N 33°59' E 131°45'263 7.9
2017-Dec-07 02:29N 34°52' E 136°57'1 0.3
2017-Dec-06 22:37N 34°53' E 136°58'1 5.3
2017-Dec-06 22:29N 34°52' E 136°58'  
Track history (hours):
 
Tides and Currents Weather Stations Pressure Air Temp Water Temp Dewpoint Dewpoint Depression Visibility Wind Speed Wind Dir Waves Ship Positions

Asahimaru No18

Last reported at 2017-Dec-15 17:50 UTC. Time now 2017-Dec-17 17:24 UTC.
Position N 33°20' E 131°47'.

Length 62 m.

Type: Cargo ship. MMSI: 431301419.

Date/timePositionNaut miles runAvg speedWind from/ knotsBaromVisibWave heightAir tempDewpointWater temp
2017-Dec-15 17:50N 33°20' E 131°47'25 1.8
2017-Dec-15 03:40N 33°43' E 131°35'1411.8
2017-Dec-15 02:30N 33°49' E 131°20'1711.5
2017-Dec-15 01:00N 33°57' E 131°02'4 8.7
2017-Dec-15 00:30N 33°57' E 130°57'40 1.0
2017-Dec-13 07:14N 33°40' E 130°13'310.1
2017-Dec-13 06:58N 33°39' E 130°17'510.3
2017-Dec-13 06:30N 33°37' E 130°22'2 0.2
2017-Dec-12 17:48N 33°37' E 130°24'1 2.6
2017-Dec-12 17:30N 33°37' E 130°23'611.1
2017-Dec-12 17:00N 33°39' E 130°17'7 9.6
2017-Dec-12 16:18N 33°46' E 130°19'411.0
2017-Dec-12 15:58N 33°49' E 130°22'510.9
2017-Dec-12 15:30N 33°52' E 130°26'510.4
2017-Dec-12 14:59N 33°57' E 130°31'510.4
2017-Dec-12 14:30N 33°58' E 130°36'510.4
2017-Dec-12 14:00N 33°58' E 130°43'510.2
2017-Dec-12 13:30N 33°58' E 130°49'5 9.0
2017-Dec-12 12:59N 33°55' E 130°53'3 6.3
2017-Dec-12 12:30N 33°57' E 130°57'4 9.0
2017-Dec-12 12:00N 33°58' E 131°02'510.6
2017-Dec-12 11:30N 33°55' E 131°07'510.4
2017-Dec-12 11:00N 33°52' E 131°12'510.8
2017-Dec-12 10:30N 33°51' E 131°18'510.7
2017-Dec-12 10:00N 33°50' E 131°25'510.4
2017-Dec-12 09:29N 33°49' E 131°31'161 9.8
2017-Dec-11 16:57N 34°31' E 134°39'5 9.9
2017-Dec-11 16:25N 34°33' E 134°45'4 9.9
2017-Dec-11 15:59N 34°34' E 134°50'5 9.9
2017-Dec-11 15:30N 34°36' E 134°56'5 9.2
2017-Dec-11 15:00N 34°38' E 135°01'4 8.2
2017-Dec-11 14:29N 34°36' E 135°06'5 9.8
2017-Dec-11 14:00N 34°35' E 135°11'510.1
2017-Dec-11 13:30N 34°34' E 135°17'5 9.9
2017-Dec-11 13:00N 34°34' E 135°23'3 0.1
2017-Dec-10 01:08N 34°34' E 135°26'0 0.1
2017-Dec-10 00:53N 34°33' E 135°26'4 9.1
2017-Dec-10 00:30N 34°34' E 135°22'510.0
2017-Dec-09 23:59N 34°34' E 135°16'611.6
2017-Dec-09 23:30N 34°34' E 135°09'612.0
2017-Dec-09 23:00N 34°36' E 135°02'713.0
2017-Dec-09 22:27N 34°35' E 134°54'613.2
2017-Dec-09 22:00N 34°33' E 134°47'712.1
2017-Dec-09 21:25N 34°30' E 134°39'10011.2
2017-Dec-09 12:28N 34°03' E 132°42'48 2.0
2017-Dec-08 12:00N 33°59' E 131°45'263 7.9
2017-Dec-07 02:29N 34°52' E 136°57'1 0.3
2017-Dec-06 22:37N 34°53' E 136°58'1 5.3
2017-Dec-06 22:29N 34°52' E 136°58'  

Dump ship's entire track history